Hayti Heights, Missouri
Current Conditions -  °F | °C
As of 11:53 PM on Wednesday 28 Jan 2015 (Local Time) from KHKA Reporting Station
Broken Clouds Broken Clouds  
Wind Chill: 53°   Ceiling: 12000
Heat Index: 53°   Visibility: 10mi
Dew Point: 36°   Wind: 16mph
Humidity: 52%   Direction: 190°S
Pressure: 30.01"   Gusts: NA
Location:  36.2659°N, 89.7083°W
Report Text: KHKA 290553Z AUTO 19014KT 10SM BKN120 12/02 A3001 RMK AO2 SLP162 T01170022 10117 20078 401331017 56019
Loading
Personal Weather Stations






























Interactive Weather Map New forecast layout! Learn more

10-Day Weather Forecast

Advertisements
Track Severe Weather on mobile